createdAt,value
2018-06-30T00:00:59.845Z,95226.00
2018-06-30T00:03:36.775Z,95224.00
2018-06-30T00:06:08.656Z,95221.00
2018-06-30T00:08:40.309Z,95225.00
2018-06-30T00:11:12.014Z,95228.00
2018-06-30T00:13:43.643Z,95228.00
2018-06-30T00:16:15.375Z,95224.00
2018-06-30T00:18:47.103Z,95224.00
2018-06-30T00:21:18.876Z,95229.00
2018-06-30T00:23:50.586Z,95230.00
2018-06-30T00:26:22.346Z,95234.00
2018-06-30T00:28:54.125Z,95233.00
2018-06-30T00:31:25.886Z,95236.00
2018-06-30T00:33:57.643Z,95233.00
2018-06-30T00:36:29.405Z,95229.00
2018-06-30T00:39:01.052Z,95238.00
2018-06-30T00:41:32.326Z,95239.00
2018-06-30T00:44:07.851Z,95237.00
2018-06-30T00:46:39.488Z,95231.00
2018-06-30T00:49:11.142Z,95230.00
2018-06-30T00:51:42.848Z,95226.00
2018-06-30T00:54:14.518Z,95220.00
2018-06-30T00:56:46.162Z,95220.00
2018-06-30T00:59:17.335Z,95218.00
2018-06-30T01:01:48.803Z,95218.00
2018-06-30T01:04:20.539Z,95216.00
2018-06-30T01:06:52.245Z,95217.00
2018-06-30T01:09:24.146Z,95221.00
2018-06-30T01:11:55.865Z,95214.00
2018-06-30T01:14:27.562Z,95218.00
2018-06-30T01:16:59.288Z,95216.00
2018-06-30T01:19:31.006Z,95220.00
2018-06-30T01:22:02.681Z,95219.00
2018-06-30T01:24:34.414Z,95221.00
2018-06-30T01:27:06.119Z,95218.00
2018-06-30T01:29:37.757Z,95222.00
2018-06-30T01:32:09.422Z,95217.00
2018-06-30T01:34:40.646Z,95218.00
2018-06-30T01:37:12.226Z,95218.00
2018-06-30T01:39:43.817Z,95220.00
2018-06-30T01:42:15.503Z,95220.00
2018-06-30T01:44:47.163Z,95212.00
2018-06-30T01:47:18.989Z,95212.00
2018-06-30T01:49:50.634Z,95211.00
2018-06-30T01:52:22.217Z,95207.00
2018-06-30T01:54:53.926Z,95204.00
2018-06-30T01:57:25.542Z,95201.00
2018-06-30T01:59:57.166Z,95197.00
2018-06-30T02:02:28.814Z,95191.00
2018-06-30T02:05:00.402Z,95196.00
2018-06-30T02:07:32.098Z,95192.00
2018-06-30T02:10:03.753Z,95188.00
2018-06-30T02:12:35.480Z,95193.00
2018-06-30T02:15:07.561Z,95188.00
2018-06-30T02:17:39.224Z,95183.00
2018-06-30T02:20:10.846Z,95182.00
2018-06-30T02:22:42.589Z,95176.00
2018-06-30T02:25:14.343Z,95175.00
2018-06-30T02:27:45.988Z,95174.00
2018-06-30T02:30:17.703Z,95179.00
2018-06-30T02:32:49.366Z,95177.00
2018-06-30T02:35:21.063Z,95173.00
2018-06-30T02:37:52.787Z,95180.00
2018-06-30T02:40:24.484Z,95180.00
2018-06-30T02:42:56.246Z,95180.00
2018-06-30T02:45:27.947Z,95180.00
2018-06-30T02:47:59.708Z,95178.00
2018-06-30T02:50:31.627Z,95179.00
2018-06-30T02:53:03.365Z,95177.00
2018-06-30T02:55:35.112Z,95180.00
2018-06-30T02:58:06.806Z,95175.00
2018-06-30T03:00:38.482Z,95170.00
2018-06-30T03:03:10.230Z,95175.00
2018-06-30T03:05:41.913Z,95179.00
2018-06-30T03:08:13.563Z,95171.00
2018-06-30T03:10:45.309Z,95172.00
2018-06-30T03:13:17.026Z,95172.00
2018-06-30T03:15:48.722Z,95177.00
2018-06-30T03:18:20.415Z,95176.00
2018-06-30T03:20:52.128Z,95173.00
2018-06-30T03:23:24.047Z,95176.00
2018-06-30T03:25:55.703Z,95177.00
2018-06-30T03:28:27.303Z,95174.00
2018-06-30T03:30:58.897Z,95171.00
2018-06-30T03:33:30.563Z,95168.00
2018-06-30T03:36:02.194Z,95169.00
2018-06-30T03:38:33.914Z,95172.00
2018-06-30T03:41:05.598Z,95175.00
2018-06-30T03:43:37.202Z,95174.00
2018-06-30T03:46:08.892Z,95178.00
2018-06-30T03:48:40.545Z,95178.00
2018-06-30T03:51:12.136Z,95175.00
2018-06-30T03:53:43.869Z,95179.00
2018-06-30T03:56:15.509Z,95180.00
2018-06-30T03:58:47.237Z,95182.00
2018-06-30T04:01:18.846Z,95185.00
2018-06-30T04:03:50.458Z,95184.00
2018-06-30T04:06:21.991Z,95188.00
2018-06-30T04:08:53.637Z,95185.00
2018-06-30T04:11:25.302Z,95187.00
2018-06-30T04:13:57.218Z,95180.00
2018-06-30T04:16:28.885Z,95178.00
2018-06-30T04:19:06.722Z,95182.00
2018-06-30T04:21:38.326Z,95185.00
2018-06-30T04:24:10.053Z,95183.00
2018-06-30T04:26:42.960Z,95185.00
2018-06-30T04:29:14.982Z,95182.00
2018-06-30T04:31:46.676Z,95186.00
2018-06-30T04:34:18.402Z,95184.00
2018-06-30T04:36:50.114Z,95185.00
2018-06-30T04:39:21.794Z,95188.00
2018-06-30T04:41:53.540Z,95190.00
2018-06-30T04:44:25.243Z,95191.00
2018-06-30T04:46:56.437Z,95189.00
2018-06-30T04:49:27.912Z,95193.00
2018-06-30T04:51:59.550Z,95192.00
2018-06-30T04:54:31.361Z,95194.00
2018-06-30T04:57:03.046Z,95199.00
2018-06-30T04:59:34.835Z,95200.00
2018-06-30T05:02:06.545Z,95200.00
2018-06-30T05:04:38.303Z,95200.00
2018-06-30T05:07:10.669Z,95192.00
2018-06-30T05:09:42.918Z,95188.00
2018-06-30T05:12:14.603Z,95186.00
2018-06-30T05:14:47.148Z,95188.00
2018-06-30T05:17:19.609Z,95195.00
2018-06-30T05:19:51.705Z,95196.00
2018-06-30T05:22:24.169Z,95197.00
2018-06-30T05:24:56.258Z,95195.00
2018-06-30T05:27:28.814Z,95194.00
2018-06-30T05:30:00.884Z,95190.00
2018-06-30T05:32:32.966Z,95195.00
2018-06-30T05:35:05.448Z,95189.00
2018-06-30T05:37:37.874Z,95190.00
2018-06-30T05:40:10.174Z,95190.00
2018-06-30T05:42:42.017Z,95186.00
2018-06-30T05:45:14.162Z,95189.00
2018-06-30T05:47:46.002Z,95183.00
2018-06-30T05:50:18.013Z,95185.00
2018-06-30T05:52:49.698Z,95176.00
2018-06-30T05:55:21.669Z,95180.00
2018-06-30T05:57:54.167Z,95177.00
2018-06-30T06:00:26.972Z,95180.00
2018-06-30T06:02:58.658Z,95181.00
2018-06-30T06:05:30.654Z,95182.00
2018-06-30T06:08:02.651Z,95180.00
2018-06-30T06:10:34.572Z,95175.00
2018-06-30T06:13:06.405Z,95172.00
2018-06-30T06:15:38.418Z,95174.00
2018-06-30T06:18:11.294Z,95172.00
2018-06-30T06:20:43.378Z,95173.00
2018-06-30T06:23:15.345Z,95169.00
2018-06-30T06:25:47.545Z,95168.00
2018-06-30T06:28:19.761Z,95167.00
2018-06-30T06:30:51.923Z,95163.00
2018-06-30T06:33:24.111Z,95161.00
2018-06-30T06:35:56.023Z,95162.00
2018-06-30T06:38:28.894Z,95162.00
2018-06-30T06:41:00.804Z,95161.00
2018-06-30T06:43:32.884Z,95159.00
2018-06-30T06:46:04.566Z,95162.00
2018-06-30T06:48:36.021Z,95154.00
2018-06-30T06:51:08.235Z,95152.00
2018-06-30T06:53:40.326Z,95158.00
2018-06-30T06:56:12.151Z,95147.00
2018-06-30T06:58:44.730Z,95147.00
2018-06-30T07:01:17.206Z,95143.00
2018-06-30T07:03:52.571Z,95137.00
2018-06-30T07:06:25.177Z,95134.00
2018-06-30T07:08:57.081Z,95078.00
2018-06-30T07:11:28.973Z,95129.00
2018-06-30T07:14:00.956Z,95125.00
2018-06-30T07:16:33.669Z,95123.00
2018-06-30T07:19:05.755Z,95121.00
2018-06-30T07:21:37.773Z,95115.00
2018-06-30T07:24:09.622Z,95110.00
2018-06-30T07:26:41.531Z,95106.00
2018-06-30T07:29:13.450Z,95106.00
2018-06-30T07:31:46.235Z,95103.00
2018-06-30T07:34:18.226Z,95098.00
2018-06-30T07:36:50.166Z,95100.00
2018-06-30T07:39:25.125Z,95100.00
2018-06-30T07:41:59.140Z,95100.00
2018-06-30T07:44:31.450Z,95095.00
2018-06-30T07:47:03.844Z,95095.00
2018-06-30T07:49:35.750Z,95100.00
2018-06-30T07:52:08.607Z,95099.00
2018-06-30T07:54:40.454Z,95100.00
2018-06-30T07:57:12.400Z,95095.00
2018-06-30T07:59:46.625Z,95099.00
2018-06-30T08:02:18.887Z,95094.00
2018-06-30T08:04:51.496Z,95096.00
2018-06-30T08:07:23.295Z,95094.00
2018-06-30T08:09:55.202Z,95090.00
2018-06-30T08:12:26.962Z,95088.00
2018-06-30T08:14:58.862Z,95085.00
2018-06-30T08:17:30.974Z,95082.00
2018-06-30T08:20:02.886Z,95087.00
2018-06-30T08:22:35.295Z,95090.00
2018-06-30T08:25:07.366Z,95090.00
2018-06-30T08:27:39.129Z,95087.00
2018-06-30T08:30:11.761Z,95084.00
2018-06-30T08:32:43.771Z,95080.00
2018-06-30T08:35:16.243Z,95082.00
2018-06-30T08:37:48.257Z,95078.00
2018-06-30T08:40:20.273Z,95076.00
2018-06-30T08:42:52.556Z,95079.00
2018-06-30T08:45:25.302Z,95073.00
2018-06-30T08:47:57.508Z,95071.00
2018-06-30T08:50:29.371Z,95073.00
2018-06-30T08:53:01.268Z,95072.00
2018-06-30T08:55:33.219Z,95065.00
2018-06-30T08:58:05.573Z,95063.00
2018-06-30T09:00:38.433Z,95064.00
2018-06-30T09:03:10.096Z,95059.00
2018-06-30T09:05:42.094Z,95052.00
2018-06-30T09:08:14.245Z,95051.00
2018-06-30T09:10:46.070Z,95049.00
2018-06-30T09:13:18.091Z,95046.00
2018-06-30T09:15:49.930Z,95045.00
2018-06-30T09:18:22.075Z,95044.00
2018-06-30T09:20:54.085Z,95036.00
2018-06-30T09:23:26.009Z,95035.00
2018-06-30T09:25:57.979Z,95032.00
2018-06-30T09:28:30.180Z,95029.00
2018-06-30T09:31:02.259Z,95025.00
2018-06-30T09:33:34.245Z,95022.00
2018-06-30T09:36:06.405Z,95019.00
2018-06-30T09:38:37.850Z,95017.00
2018-06-30T09:41:09.526Z,95023.00
2018-06-30T09:43:41.526Z,95022.00
2018-06-30T09:46:13.612Z,95017.00
2018-06-30T09:48:45.771Z,95018.00
2018-06-30T09:51:18.018Z,95019.00
2018-06-30T09:53:50.173Z,95023.00
2018-06-30T09:56:22.335Z,95016.00
2018-06-30T09:58:54.722Z,95017.00
2018-06-30T10:01:26.430Z,95017.00
2018-06-30T10:03:58.412Z,95015.00
2018-06-30T10:06:30.333Z,95007.00
2018-06-30T10:09:02.447Z,95003.00
2018-06-30T10:11:34.496Z,95004.00
2018-06-30T10:14:06.646Z,95008.00
2018-06-30T10:16:38.728Z,95009.00
2018-06-30T10:19:10.848Z,95006.00
2018-06-30T10:21:42.809Z,95007.00
2018-06-30T10:24:15.043Z,95003.00
2018-06-30T10:26:47.043Z,95005.00
2018-06-30T10:29:19.131Z,95007.00
2018-06-30T10:31:51.137Z,95005.00
2018-06-30T10:34:23.213Z,95010.00
2018-06-30T10:36:55.295Z,95009.00
2018-06-30T10:39:26.966Z,95007.00
2018-06-30T10:41:58.771Z,95004.00
2018-06-30T10:44:30.796Z,95003.00
2018-06-30T10:47:03.047Z,94997.00
2018-06-30T10:49:35.056Z,94993.00
2018-06-30T10:52:07.131Z,94997.00
2018-06-30T10:54:39.206Z,94991.00
2018-06-30T10:57:11.215Z,94998.00
2018-06-30T10:59:42.846Z,94997.00
2018-06-30T11:02:14.572Z,94987.00
2018-06-30T11:04:46.574Z,94988.00
2018-06-30T11:07:18.573Z,94985.00
2018-06-30T11:09:50.808Z,94981.00
2018-06-30T11:12:23.526Z,94978.00
2018-06-30T11:14:55.752Z,94971.00
2018-06-30T11:17:27.782Z,94975.00
2018-06-30T11:19:59.924Z,94978.00
2018-06-30T11:22:32.084Z,94977.00
2018-06-30T11:25:04.019Z,94972.00
2018-06-30T11:27:36.010Z,94970.00
2018-06-30T11:30:08.096Z,94973.00
2018-06-30T11:32:40.086Z,94979.00
2018-06-30T11:35:12.086Z,94972.00
2018-06-30T11:37:44.011Z,94972.00
2018-06-30T11:40:15.983Z,94966.00
2018-06-30T11:42:48.023Z,94961.00
2018-06-30T11:45:19.933Z,94956.00
2018-06-30T11:47:52.088Z,94954.00
2018-06-30T11:50:24.120Z,94955.00
2018-06-30T11:52:56.174Z,94957.00
2018-06-30T11:55:28.253Z,94956.00
2018-06-30T11:58:00.334Z,94953.00
2018-06-30T12:00:32.258Z,94952.00
2018-06-30T12:03:04.333Z,94948.00
2018-06-30T12:05:36.309Z,94949.00
2018-06-30T12:08:08.402Z,94949.00
2018-06-30T12:10:40.495Z,94951.00
2018-06-30T12:13:12.483Z,94946.00
2018-06-30T12:15:44.486Z,94949.00
2018-06-30T12:18:16.495Z,94946.00
2018-06-30T12:20:48.655Z,94942.00
2018-06-30T12:23:20.817Z,94938.00
2018-06-30T12:25:52.978Z,94937.00
2018-06-30T12:28:25.137Z,94936.00
2018-06-30T12:30:57.449Z,94936.00
2018-06-30T12:33:29.535Z,94946.00
2018-06-30T12:36:01.689Z,94942.00
2018-06-30T12:38:33.685Z,94939.00
2018-06-30T12:41:05.610Z,94934.00
2018-06-30T12:43:37.449Z,94932.00
2018-06-30T12:46:09.857Z,94927.00
2018-06-30T12:48:42.016Z,94929.00
2018-06-30T12:51:14.014Z,94928.00
2018-06-30T12:53:46.009Z,94934.00
2018-06-30T12:56:18.094Z,94930.00
2018-06-30T12:58:50.015Z,94933.00
2018-06-30T13:01:22.173Z,94929.00
2018-06-30T13:03:54.374Z,94926.00
2018-06-30T13:06:26.252Z,94926.00
2018-06-30T13:08:58.421Z,94932.00
2018-06-30T13:11:31.213Z,94927.00
2018-06-30T13:14:03.289Z,94937.00
2018-06-30T13:16:36.405Z,94942.00
2018-06-30T13:19:09.741Z,94929.00
2018-06-30T13:21:42.012Z,94931.00
2018-06-30T13:24:13.855Z,94936.00
2018-06-30T13:26:46.094Z,94932.00
2018-06-30T13:29:17.924Z,94932.00
2018-06-30T13:31:50.091Z,94930.00
2018-06-30T13:34:22.186Z,94930.00
2018-06-30T13:36:54.170Z,94932.00
2018-06-30T13:39:26.086Z,94930.00
2018-06-30T13:41:58.069Z,94927.00
2018-06-30T13:44:30.496Z,94932.00
2018-06-30T13:47:02.413Z,94936.00
2018-06-30T13:49:34.806Z,94925.00
2018-06-30T13:52:07.298Z,94917.00
2018-06-30T13:54:40.337Z,94931.00
2018-06-30T13:57:12.488Z,94931.00
2018-06-30T13:59:44.505Z,94933.00
2018-06-30T14:02:16.655Z,94925.00
2018-06-30T14:04:48.654Z,94931.00
2018-06-30T14:07:20.974Z,94930.00
2018-06-30T14:09:53.445Z,94940.00
2018-06-30T14:12:25.687Z,94938.00
2018-06-30T14:14:57.622Z,94931.00
2018-06-30T14:17:29.931Z,94925.00
2018-06-30T14:20:02.014Z,94926.00
2018-06-30T14:22:33.917Z,94932.00
2018-06-30T14:25:06.260Z,94937.00
2018-06-30T14:27:38.356Z,94934.00
2018-06-30T14:30:12.899Z,94934.00
2018-06-30T14:32:45.528Z,94933.00
2018-06-30T14:35:18.007Z,94924.00
2018-06-30T14:37:50.495Z,94918.00
2018-06-30T14:40:22.601Z,94917.00
2018-06-30T14:42:54.973Z,94922.00
2018-06-30T14:45:27.401Z,94918.00
2018-06-30T14:47:59.447Z,94923.00
2018-06-30T14:50:31.776Z,94929.00
2018-06-30T14:53:03.774Z,94922.00
2018-06-30T14:55:36.414Z,94929.00
2018-06-30T14:58:09.286Z,94934.00
2018-06-30T15:00:41.281Z,94932.00
2018-06-30T15:03:13.684Z,94925.00
2018-06-30T15:05:46.006Z,94922.00
2018-06-30T15:08:18.334Z,94936.00
2018-06-30T15:10:50.577Z,94945.00
2018-06-30T15:13:22.891Z,94952.00
2018-06-30T15:15:55.126Z,94949.00
2018-06-30T15:18:27.381Z,94950.00
2018-06-30T15:20:59.452Z,94949.00
2018-06-30T15:23:31.615Z,94946.00
2018-06-30T15:26:03.686Z,94935.00
2018-06-30T15:28:35.849Z,94940.00
2018-06-30T15:31:08.010Z,94951.00
2018-06-30T15:33:40.005Z,94948.00
2018-06-30T15:36:12.207Z,94956.00
2018-06-30T15:38:44.257Z,94956.00
2018-06-30T15:41:16.341Z,94955.00
2018-06-30T15:43:48.433Z,94944.00
2018-06-30T15:46:20.574Z,94954.00
2018-06-30T15:48:52.642Z,94955.00
2018-06-30T15:51:24.732Z,94958.00
2018-06-30T15:53:56.934Z,94948.00
2018-06-30T15:56:28.815Z,94950.00
2018-06-30T15:59:00.774Z,94954.00
2018-06-30T16:01:32.805Z,94955.00
2018-06-30T16:04:04.728Z,94957.00
2018-06-30T16:06:38.097Z,94966.00
2018-06-30T16:09:12.574Z,94965.00
2018-06-30T16:11:44.735Z,94967.00
2018-06-30T16:14:17.363Z,94961.00
2018-06-30T16:16:49.424Z,94960.00
2018-06-30T16:19:21.443Z,94964.00
2018-06-30T16:21:53.699Z,94958.00
2018-06-30T16:24:25.865Z,94959.00
2018-06-30T16:26:57.843Z,94958.00
2018-06-30T16:29:30.022Z,94957.00
2018-06-30T16:32:02.902Z,94956.00
2018-06-30T16:34:35.371Z,94958.00
2018-06-30T16:37:06.969Z,94964.00
2018-06-30T16:39:38.974Z,94963.00
2018-06-30T16:42:11.051Z,94963.00
2018-06-30T16:44:42.971Z,94965.00
2018-06-30T16:47:15.262Z,94967.00
2018-06-30T16:49:47.435Z,94962.00
2018-06-30T16:52:19.686Z,94952.00
2018-06-30T16:54:52.732Z,94961.00
2018-06-30T16:57:24.736Z,94963.00
2018-06-30T16:59:56.879Z,94968.00
2018-06-30T17:02:29.538Z,94972.00
2018-06-30T17:05:01.778Z,94970.00
2018-06-30T17:07:33.691Z,94970.00
2018-06-30T17:10:06.807Z,94966.00
2018-06-30T17:12:38.829Z,94960.00
2018-06-30T17:15:12.722Z,94969.00
2018-06-30T17:17:45.283Z,94968.00
2018-06-30T17:20:17.153Z,94970.00
2018-06-30T17:22:49.031Z,94972.00
2018-06-30T17:25:20.642Z,94969.00
2018-06-30T17:27:52.326Z,94969.00
2018-06-30T17:30:24.007Z,94976.00
2018-06-30T17:32:56.257Z,94983.00
2018-06-30T17:35:28.331Z,94990.00
2018-06-30T17:37:59.926Z,94987.00
2018-06-30T17:40:31.854Z,94990.00
2018-06-30T17:43:04.178Z,94983.00
2018-06-30T17:45:36.060Z,94981.00
2018-06-30T17:48:07.608Z,94981.00
2018-06-30T17:50:39.454Z,94976.00
2018-06-30T17:53:12.251Z,94983.00
2018-06-30T17:55:44.278Z,94982.00
2018-06-30T17:58:16.483Z,94982.00
2018-06-30T18:00:47.799Z,94989.00
2018-06-30T18:03:19.374Z,94983.00
2018-06-30T18:05:51.522Z,94985.00
2018-06-30T18:08:23.533Z,94986.00
2018-06-30T18:10:55.360Z,94991.00
2018-06-30T18:13:27.529Z,94988.00
2018-06-30T18:15:59.857Z,94989.00
2018-06-30T18:18:31.851Z,94984.00
2018-06-30T18:21:03.771Z,94990.00
2018-06-30T18:23:36.638Z,94993.00
2018-06-30T18:26:08.581Z,94995.00
2018-06-30T18:28:40.323Z,95002.00
2018-06-30T18:31:12.864Z,94998.00
2018-06-30T18:33:44.330Z,95003.00
2018-06-30T18:36:16.566Z,95003.00
2018-06-30T18:38:49.357Z,95009.00
2018-06-30T18:41:21.694Z,95016.00
2018-06-30T18:43:54.094Z,95020.00
2018-06-30T18:46:26.245Z,95018.00
2018-06-30T18:48:59.041Z,95021.00
2018-06-30T18:51:30.897Z,95012.00
2018-06-30T18:54:03.211Z,95015.00
2018-06-30T18:56:35.053Z,95021.00
2018-06-30T18:59:07.361Z,95019.00
2018-06-30T19:01:39.830Z,95022.00
2018-06-30T19:04:11.772Z,95026.00
2018-06-30T19:06:43.850Z,95024.00
2018-06-30T19:09:16.245Z,95029.00
2018-06-30T19:11:48.122Z,95035.00
2018-06-30T19:14:20.409Z,95039.00
2018-06-30T19:16:52.004Z,95037.00
2018-06-30T19:19:23.919Z,95041.00
2018-06-30T19:21:57.895Z,95046.00
2018-06-30T19:24:30.094Z,95046.00
2018-06-30T19:27:02.165Z,95057.00
2018-06-30T19:29:34.165Z,95053.00
2018-06-30T19:32:06.963Z,95054.00
2018-06-30T19:34:38.809Z,95052.00
2018-06-30T19:37:11.846Z,95057.00
2018-06-30T19:39:43.841Z,95048.00
2018-06-30T19:42:15.953Z,95051.00
2018-06-30T19:44:47.873Z,95053.00
2018-06-30T19:47:19.934Z,95053.00
2018-06-30T19:49:51.849Z,95052.00
2018-06-30T19:52:24.012Z,95055.00
2018-06-30T19:54:56.330Z,95059.00
2018-06-30T19:57:28.546Z,95066.00
2018-06-30T20:00:00.545Z,95067.00
2018-06-30T20:02:32.327Z,95064.00
2018-06-30T20:05:04.346Z,95074.00
2018-06-30T20:07:41.441Z,95076.00
2018-06-30T20:10:14.246Z,95081.00
2018-06-30T20:12:46.322Z,95076.00
2018-06-30T20:15:18.411Z,95079.00
2018-06-30T20:17:50.656Z,95083.00
2018-06-30T20:20:23.207Z,95079.00
2018-06-30T20:22:55.290Z,95084.00
2018-06-30T20:25:27.640Z,95084.00
2018-06-30T20:27:59.729Z,95088.00
2018-06-30T20:30:31.935Z,95087.00
2018-06-30T20:33:04.014Z,95085.00
2018-06-30T20:35:35.959Z,95090.00
2018-06-30T20:38:08.078Z,95088.00
2018-06-30T20:40:40.249Z,95089.00
2018-06-30T20:43:12.254Z,95085.00
2018-06-30T20:45:45.694Z,95092.00
2018-06-30T20:48:18.725Z,95091.00
2018-06-30T20:50:51.168Z,95089.00
2018-06-30T20:53:23.278Z,95092.00
2018-06-30T20:55:55.856Z,95089.00
2018-06-30T20:58:28.253Z,95087.00
2018-06-30T21:01:00.652Z,95092.00
2018-06-30T21:03:32.731Z,95090.00
2018-06-30T21:06:04.966Z,95091.00
2018-06-30T21:08:36.887Z,95099.00
2018-06-30T21:11:08.490Z,95102.00
2018-06-30T21:13:40.346Z,95107.00
2018-06-30T21:16:12.502Z,95102.00
2018-06-30T21:18:45.125Z,95101.00
2018-06-30T21:21:17.538Z,95100.00
2018-06-30T21:23:49.609Z,95100.00
2018-06-30T21:26:21.845Z,95096.00
2018-06-30T21:28:54.005Z,95105.00
2018-06-30T21:31:26.008Z,95104.00
2018-06-30T21:33:58.182Z,95101.00
2018-06-30T21:36:30.300Z,95100.00
2018-06-30T21:39:02.414Z,95104.00
2018-06-30T21:41:34.969Z,95099.00
2018-06-30T21:44:07.213Z,95103.00
2018-06-30T21:46:39.291Z,95100.00
2018-06-30T21:49:11.385Z,95104.00
2018-06-30T21:51:44.015Z,95104.00
2018-06-30T21:54:16.131Z,95101.00
2018-06-30T21:56:48.333Z,95107.00
2018-06-30T21:59:20.146Z,95106.00
2018-06-30T22:01:52.654Z,95102.00
2018-06-30T22:04:24.894Z,95102.00
2018-06-30T22:06:56.814Z,95103.00
2018-06-30T22:09:28.891Z,95103.00
2018-06-30T22:12:00.967Z,95104.00
2018-06-30T22:14:33.442Z,95105.00
2018-06-30T22:17:05.533Z,95102.00
2018-06-30T22:19:37.447Z,95108.00
2018-06-30T22:22:09.206Z,95107.00
2018-06-30T22:24:41.290Z,95105.00
2018-06-30T22:27:13.526Z,95107.00
2018-06-30T22:29:45.530Z,95105.00
2018-06-30T22:32:17.630Z,95105.00
2018-06-30T22:34:49.929Z,95105.00
2018-06-30T22:37:21.933Z,95108.00
2018-06-30T22:40:10.496Z,95108.00
2018-06-30T22:42:42.814Z,95111.00
2018-06-30T22:45:15.686Z,95113.00
2018-06-30T22:47:48.011Z,95117.00
2018-06-30T22:50:20.494Z,95114.00
2018-06-30T22:52:52.410Z,95121.00
2018-06-30T22:55:24.339Z,95126.00
2018-06-30T22:57:56.486Z,95121.00
2018-06-30T23:00:29.047Z,95125.00
2018-06-30T23:03:01.297Z,95124.00
2018-06-30T23:05:33.539Z,95121.00
2018-06-30T23:08:05.850Z,95131.00
2018-06-30T23:10:38.166Z,95133.00
2018-06-30T23:13:10.411Z,95135.00
2018-06-30T23:15:42.650Z,95132.00
2018-06-30T23:18:14.760Z,95127.00
2018-06-30T23:20:47.057Z,95126.00
2018-06-30T23:23:19.213Z,95124.00
2018-06-30T23:25:51.135Z,95129.00
2018-06-30T23:28:23.286Z,95127.00
2018-06-30T23:30:55.367Z,95128.00
2018-06-30T23:33:27.283Z,95130.00
2018-06-30T23:35:59.696Z,95131.00
2018-06-30T23:38:31.690Z,95129.00
2018-06-30T23:41:03.691Z,95138.00
2018-06-30T23:43:35.690Z,95132.00
2018-06-30T23:46:07.941Z,95133.00
2018-06-30T23:48:40.971Z,95127.00
2018-06-30T23:51:13.290Z,95136.00
2018-06-30T23:53:45.365Z,95141.00
2018-06-30T23:56:17.291Z,95143.00
2018-06-30T23:58:49.217Z,95143.00
